sensor_id;sensor_type;location;lat;lon;timestamp;P1;durP1;ratioP1;P2;durP2;ratioP2
6832;SDS011;3454;42.654;23.378;2022-12-07T08:25:32;32.40;;;19.33;;
6832;SDS011;3454;42.654;23.378;2022-12-07T08:27:57;31.70;;;17.40;;
6832;SDS011;3454;42.654;23.378;2022-12-07T08:30:23;33.70;;;18.60;;
6832;SDS011;3454;42.654;23.378;2022-12-07T08:32:49;30.20;;;18.07;;
6832;SDS011;3454;42.654;23.378;2022-12-07T08:35:33;37.40;;;17.37;;
6832;SDS011;3454;42.654;23.378;2022-12-07T08:37:59;43.93;;;18.50;;
6832;SDS011;3454;42.654;23.378;2022-12-07T08:40:27;36.57;;;18.07;;
6832;SDS011;3454;42.654;23.378;2022-12-07T08:42:53;33.73;;;18.30;;
6832;SDS011;3454;42.654;23.378;2022-12-07T08:45:18;35.00;;;18.10;;
6832;SDS011;3454;42.654;23.378;2022-12-07T08:47:49;33.07;;;17.40;;
6832;SDS011;3454;42.654;23.378;2022-12-07T08:50:19;36.80;;;18.90;;
6832;SDS011;3454;42.654;23.378;2022-12-07T08:52:48;43.03;;;20.00;;
6832;SDS011;3454;42.654;23.378;2022-12-07T08:55:16;32.93;;;19.20;;
6832;SDS011;3454;42.654;23.378;2022-12-07T08:57:41;33.03;;;18.57;;
6832;SDS011;3454;42.654;23.378;2022-12-07T09:00:08;35.20;;;19.63;;
6832;SDS011;3454;42.654;23.378;2022-12-07T09:02:34;36.93;;;19.70;;
6832;SDS011;3454;42.654;23.378;2022-12-07T09:04:59;36.20;;;19.37;;
6832;SDS011;3454;42.654;23.378;2022-12-07T09:07:25;37.17;;;20.47;;
6832;SDS011;3454;42.654;23.378;2022-12-07T09:09:51;40.70;;;21.07;;
6832;SDS011;3454;42.654;23.378;2022-12-07T09:12:16;35.47;;;19.43;;
6832;SDS011;3454;42.654;23.378;2022-12-07T09:14:42;32.57;;;18.10;;
6832;SDS011;3454;42.654;23.378;2022-12-07T09:17:08;39.87;;;19.30;;
6832;SDS011;3454;42.654;23.378;2022-12-07T09:19:34;47.10;;;19.40;;
6832;SDS011;3454;42.654;23.378;2022-12-07T09:22:01;36.60;;;18.23;;
6832;SDS011;3454;42.654;23.378;2022-12-07T09:24:26;33.50;;;19.13;;
6832;SDS011;3454;42.654;23.378;2022-12-07T09:26:51;34.67;;;18.83;;
6832;SDS011;3454;42.654;23.378;2022-12-07T09:29:17;34.97;;;18.10;;
6832;SDS011;3454;42.654;23.378;2022-12-07T09:31:42;33.90;;;19.87;;
6832;SDS011;3454;42.654;23.378;2022-12-07T09:34:08;39.83;;;19.60;;
6832;SDS011;3454;42.654;23.378;2022-12-07T09:36:33;44.20;;;19.47;;
6832;SDS011;3454;42.654;23.378;2022-12-07T09:38:59;35.73;;;19.47;;
6832;SDS011;3454;42.654;23.378;2022-12-07T09:41:25;33.23;;;18.93;;
6832;SDS011;3454;42.654;23.378;2022-12-07T09:43:53;38.07;;;18.27;;
6832;SDS011;3454;42.654;23.378;2022-12-07T09:46:29;41.47;;;20.37;;
6832;SDS011;3454;42.654;23.378;2022-12-07T09:49:00;43.77;;;20.07;;
6832;SDS011;3454;42.654;23.378;2022-12-07T09:51:26;37.93;;;20.03;;
6832;SDS011;3454;42.654;23.378;2022-12-07T09:53:52;49.50;;;20.30;;
6832;SDS011;3454;42.654;23.378;2022-12-07T09:56:19;39.90;;;18.97;;
6832;SDS011;3454;42.654;23.378;2022-12-07T09:58:46;32.60;;;19.27;;
6832;SDS011;3454;42.654;23.378;2022-12-07T10:01:20;37.97;;;20.37;;
6832;SDS011;3454;42.654;23.378;2022-12-07T10:06:19;36.97;;;18.43;;
6832;SDS011;3454;42.654;23.378;2022-12-07T10:08:44;35.87;;;18.83;;
6832;SDS011;3454;42.654;23.378;2022-12-07T10:11:10;39.07;;;19.03;;
6832;SDS011;3454;42.654;23.378;2022-12-07T10:18:54;38.03;;;18.73;;
6832;SDS011;3454;42.654;23.378;2022-12-07T10:21:21;33.10;;;17.67;;
6832;SDS011;3454;42.654;23.378;2022-12-07T10:31:42;37.80;;;17.60;;
6832;SDS011;3454;42.654;23.378;2022-12-07T10:34:42;38.53;;;17.33;;
6832;SDS011;3454;42.654;23.378;2022-12-07T10:39:43;30.50;;;15.10;;
6832;SDS011;3454;42.654;23.378;2022-12-07T10:42:30;27.03;;;14.53;;
6832;SDS011;3454;42.654;23.378;2022-12-07T10:47:38;33.20;;;16.20;;
6832;SDS011;3454;42.654;23.378;2022-12-07T10:56:01;25.80;;;15.73;;
6832;SDS011;3454;42.654;23.378;2022-12-07T11:04:16;33.50;;;15.87;;
6832;SDS011;3454;42.654;23.378;2022-12-07T11:06:54;29.13;;;16.57;;
6832;SDS011;3454;42.654;23.378;2022-12-07T11:15:15;33.47;;;15.83;;
6832;SDS011;3454;42.654;23.378;2022-12-07T11:20:41;27.27;;;14.03;;
6832;SDS011;3454;42.654;23.378;2022-12-07T11:26:06;33.77;;;15.40;;
6832;SDS011;3454;42.654;23.378;2022-12-07T11:31:52;31.50;;;15.97;;
6832;SDS011;3454;42.654;23.378;2022-12-07T11:36:45;36.20;;;15.47;;
6832;SDS011;3454;42.654;23.378;2022-12-07T11:42:27;30.67;;;15.80;;
6832;SDS011;3454;42.654;23.378;2022-12-07T11:47:48;37.03;;;16.17;;
6832;SDS011;3454;42.654;23.378;2022-12-07T11:52:57;34.43;;;17.37;;
6832;SDS011;3454;42.654;23.378;2022-12-07T12:01:35;32.63;;;15.90;;
6832;SDS011;3454;42.654;23.378;2022-12-07T12:06:35;29.67;;;14.27;;
6832;SDS011;3454;42.654;23.378;2022-12-07T12:09:18;27.93;;;13.20;;
6832;SDS011;3454;42.654;23.378;2022-12-07T12:22:45;25.03;;;14.13;;
6832;SDS011;3454;42.654;23.378;2022-12-07T12:25:23;27.80;;;14.80;;
6832;SDS011;3454;42.654;23.378;2022-12-07T12:27:53;26.30;;;13.40;;
6832;SDS011;3454;42.654;23.378;2022-12-07T12:57:27;32.80;;;13.77;;
6832;SDS011;3454;42.654;23.378;2022-12-07T13:16:35;23.37;;;12.67;;
6832;SDS011;3454;42.654;23.378;2022-12-07T13:29:11;20.83;;;10.57;;
6832;SDS011;3454;42.654;23.378;2022-12-07T13:34:27;19.30;;;10.67;;
6832;SDS011;3454;42.654;23.378;2022-12-07T13:36:56;25.27;;;11.83;;
6832;SDS011;3454;42.654;23.378;2022-12-07T13:39:24;22.10;;;11.03;;
6832;SDS011;3454;42.654;23.378;2022-12-07T13:41:51;18.30;;;10.93;;
6832;SDS011;3454;42.654;23.378;2022-12-07T13:44:34;19.30;;;10.87;;
6832;SDS011;3454;42.654;23.378;2022-12-07T13:49:52;21.20;;;10.67;;
6832;SDS011;3454;42.654;23.378;2022-12-07T13:57:29;20.63;;;10.90;;
6832;SDS011;3454;42.654;23.378;2022-12-07T13:59:59;19.00;;;10.50;;
6832;SDS011;3454;42.654;23.378;2022-12-07T14:02:30;22.40;;;11.50;;
6832;SDS011;3454;42.654;23.378;2022-12-07T14:05:12;25.33;;;11.20;;
6832;SDS011;3454;42.654;23.378;2022-12-07T14:07:53;23.83;;;11.00;;
6832;SDS011;3454;42.654;23.378;2022-12-07T14:10:27;24.87;;;11.33;;
6832;SDS011;3454;42.654;23.378;2022-12-07T14:13:01;19.27;;;10.67;;
6832;SDS011;3454;42.654;23.378;2022-12-07T14:15:31;21.43;;;11.67;;
6832;SDS011;3454;42.654;23.378;2022-12-07T14:17:59;22.00;;;10.23;;
6832;SDS011;3454;42.654;23.378;2022-12-07T14:22:56;29.37;;;10.27;;
6832;SDS011;3454;42.654;23.378;2022-12-07T14:25:22;19.30;;;10.73;;
6832;SDS011;3454;42.654;23.378;2022-12-07T14:27:53;19.63;;;11.40;;
6832;SDS011;3454;42.654;23.378;2022-12-07T14:30:22;26.47;;;12.10;;
6832;SDS011;3454;42.654;23.378;2022-12-07T14:32:51;24.77;;;12.20;;
6832;SDS011;3454;42.654;23.378;2022-12-07T14:35:19;22.00;;;11.40;;
6832;SDS011;3454;42.654;23.378;2022-12-07T14:37:46;19.97;;;10.60;;
6832;SDS011;3454;42.654;23.378;2022-12-07T14:40:13;19.17;;;11.23;;
6832;SDS011;3454;42.654;23.378;2022-12-07T14:42:43;19.57;;;10.73;;
6832;SDS011;3454;42.654;23.378;2022-12-07T14:45:13;26.73;;;12.10;;
6832;SDS011;3454;42.654;23.378;2022-12-07T14:47:40;22.57;;;11.30;;
6832;SDS011;3454;42.654;23.378;2022-12-07T14:50:06;21.80;;;11.00;;
6832;SDS011;3454;42.654;23.378;2022-12-07T14:52:32;21.43;;;11.40;;
6832;SDS011;3454;42.654;23.378;2022-12-07T14:54:58;24.50;;;12.23;;
6832;SDS011;3454;42.654;23.378;2022-12-07T14:57:23;28.03;;;12.43;;
6832;SDS011;3454;42.654;23.378;2022-12-07T14:59:48;23.63;;;12.00;;
6832;SDS011;3454;42.654;23.378;2022-12-07T15:02:15;23.80;;;11.50;;
6832;SDS011;3454;42.654;23.378;2022-12-07T15:04:41;28.90;;;12.50;;
6832;SDS011;3454;42.654;23.378;2022-12-07T15:07:10;21.80;;;11.33;;
6832;SDS011;3454;42.654;23.378;2022-12-07T15:09:42;25.90;;;11.47;;
6832;SDS011;3454;42.654;23.378;2022-12-07T15:12:07;21.90;;;11.37;;
6832;SDS011;3454;42.654;23.378;2022-12-07T15:14:33;20.17;;;12.00;;
6832;SDS011;3454;42.654;23.378;2022-12-07T15:16:58;27.87;;;10.93;;
6832;SDS011;3454;42.654;23.378;2022-12-07T15:19:24;24.60;;;12.23;;
6832;SDS011;3454;42.654;23.378;2022-12-07T15:21:52;26.77;;;13.93;;
6832;SDS011;3454;42.654;23.378;2022-12-07T15:24:18;22.07;;;10.87;;
6832;SDS011;3454;42.654;23.378;2022-12-07T15:26:43;25.50;;;12.30;;
6832;SDS011;3454;42.654;23.378;2022-12-07T15:29:09;23.17;;;11.93;;
6832;SDS011;3454;42.654;23.378;2022-12-07T15:31:36;22.10;;;11.63;;
6832;SDS011;3454;42.654;23.378;2022-12-07T15:34:02;30.90;;;13.50;;
6832;SDS011;3454;42.654;23.378;2022-12-07T15:36:30;28.40;;;13.27;;
6832;SDS011;3454;42.654;23.378;2022-12-07T15:38:57;32.87;;;13.77;;
6832;SDS011;3454;42.654;23.378;2022-12-07T15:41:23;27.80;;;14.10;;
6832;SDS011;3454;42.654;23.378;2022-12-07T15:43:49;29.90;;;14.17;;
6832;SDS011;3454;42.654;23.378;2022-12-07T15:46:34;35.37;;;16.10;;
6832;SDS011;3454;42.654;23.378;2022-12-07T15:49:01;31.33;;;13.97;;
6832;SDS011;3454;42.654;23.378;2022-12-07T15:51:28;33.90;;;14.50;;
6832;SDS011;3454;42.654;23.378;2022-12-07T15:53:53;33.77;;;15.47;;
6832;SDS011;3454;42.654;23.378;2022-12-07T15:56:19;36.57;;;17.10;;
6832;SDS011;3454;42.654;23.378;2022-12-07T15:58:45;35.17;;;16.00;;
6832;SDS011;3454;42.654;23.378;2022-12-07T16:01:14;29.40;;;14.90;;
6832;SDS011;3454;42.654;23.378;2022-12-07T16:03:42;35.80;;;16.23;;
6832;SDS011;3454;42.654;23.378;2022-12-07T16:06:08;39.33;;;16.30;;
6832;SDS011;3454;42.654;23.378;2022-12-07T16:08:43;31.70;;;15.57;;
6832;SDS011;3454;42.654;23.378;2022-12-07T16:11:10;36.67;;;15.13;;
6832;SDS011;3454;42.654;23.378;2022-12-07T16:13:36;31.87;;;15.40;;
6832;SDS011;3454;42.654;23.378;2022-12-07T16:16:05;26.80;;;13.73;;
6832;SDS011;3454;42.654;23.378;2022-12-07T16:18:34;30.27;;;15.63;;
6832;SDS011;3454;42.654;23.378;2022-12-07T16:21:00;26.07;;;14.47;;
6832;SDS011;3454;42.654;23.378;2022-12-07T16:23:26;33.50;;;15.03;;
6832;SDS011;3454;42.654;23.378;2022-12-07T16:25:52;31.70;;;13.43;;
6832;SDS011;3454;42.654;23.378;2022-12-07T16:28:18;28.00;;;14.57;;
6832;SDS011;3454;42.654;23.378;2022-12-07T16:30:43;33.13;;;15.27;;
6832;SDS011;3454;42.654;23.378;2022-12-07T16:33:09;37.53;;;16.40;;
6832;SDS011;3454;42.654;23.378;2022-12-07T16:35:37;33.83;;;16.13;;
6832;SDS011;3454;42.654;23.378;2022-12-07T16:38:05;26.97;;;14.47;;
6832;SDS011;3454;42.654;23.378;2022-12-07T16:40:31;35.93;;;16.10;;
6832;SDS011;3454;42.654;23.378;2022-12-07T16:42:56;31.20;;;15.33;;
6832;SDS011;3454;42.654;23.378;2022-12-07T16:45:22;38.70;;;17.30;;
6832;SDS011;3454;42.654;23.378;2022-12-07T16:47:47;39.30;;;17.10;;
6832;SDS011;3454;42.654;23.378;2022-12-07T16:50:13;33.13;;;16.57;;
6832;SDS011;3454;42.654;23.378;2022-12-07T16:52:38;31.07;;;17.00;;
6832;SDS011;3454;42.654;23.378;2022-12-07T16:55:04;31.60;;;15.37;;
6832;SDS011;3454;42.654;23.378;2022-12-07T16:57:30;36.20;;;16.00;;
6832;SDS011;3454;42.654;23.378;2022-12-07T16:59:56;26.07;;;15.93;;
6832;SDS011;3454;42.654;23.378;2022-12-07T17:02:22;33.97;;;16.43;;
6832;SDS011;3454;42.654;23.378;2022-12-07T17:04:47;30.73;;;15.33;;
6832;SDS011;3454;42.654;23.378;2022-12-07T17:07:13;31.13;;;16.30;;
6832;SDS011;3454;42.654;23.378;2022-12-07T17:09:38;37.37;;;15.00;;
6832;SDS011;3454;42.654;23.378;2022-12-07T17:12:04;32.67;;;16.10;;
6832;SDS011;3454;42.654;23.378;2022-12-07T17:14:31;33.33;;;15.40;;
6832;SDS011;3454;42.654;23.378;2022-12-07T17:17:15;28.83;;;16.03;;
6832;SDS011;3454;42.654;23.378;2022-12-07T17:19:40;30.63;;;16.93;;
6832;SDS011;3454;42.654;23.378;2022-12-07T17:22:05;34.17;;;16.00;;
6832;SDS011;3454;42.654;23.378;2022-12-07T17:24:31;43.70;;;16.97;;
6832;SDS011;3454;42.654;23.378;2022-12-07T17:26:56;29.97;;;17.20;;
6832;SDS011;3454;42.654;23.378;2022-12-07T17:29:21;40.77;;;18.67;;
6832;SDS011;3454;42.654;23.378;2022-12-07T17:31:47;39.00;;;17.67;;
6832;SDS011;3454;42.654;23.378;2022-12-07T17:34:13;52.53;;;19.00;;
6832;SDS011;3454;42.654;23.378;2022-12-07T17:36:40;42.63;;;18.47;;
6832;SDS011;3454;42.654;23.378;2022-12-07T17:39:07;40.93;;;19.17;;
6832;SDS011;3454;42.654;23.378;2022-12-07T17:41:34;42.33;;;18.60;;
6832;SDS011;3454;42.654;23.378;2022-12-07T17:44:19;51.83;;;20.07;;
6832;SDS011;3454;42.654;23.378;2022-12-07T17:46:46;44.50;;;19.83;;
6832;SDS011;3454;42.654;23.378;2022-12-07T17:49:13;47.20;;;19.10;;
6832;SDS011;3454;42.654;23.378;2022-12-07T17:51:39;40.40;;;19.27;;
6832;SDS011;3454;42.654;23.378;2022-12-07T17:54:24;47.17;;;19.13;;
6832;SDS011;3454;42.654;23.378;2022-12-07T17:56:49;42.67;;;19.50;;
6832;SDS011;3454;42.654;23.378;2022-12-07T17:59:15;38.93;;;19.60;;
6832;SDS011;3454;42.654;23.378;2022-12-07T18:01:41;35.23;;;17.93;;
6832;SDS011;3454;42.654;23.378;2022-12-07T18:04:07;46.17;;;20.30;;
6832;SDS011;3454;42.654;23.378;2022-12-07T18:06:33;43.43;;;20.07;;
6832;SDS011;3454;42.654;23.378;2022-12-07T18:09:08;41.67;;;20.47;;
6832;SDS011;3454;42.654;23.378;2022-12-07T18:11:35;36.73;;;19.80;;
6832;SDS011;3454;42.654;23.378;2022-12-07T18:14:03;48.50;;;19.27;;
6832;SDS011;3454;42.654;23.378;2022-12-07T18:16:30;52.70;;;21.03;;
6832;SDS011;3454;42.654;23.378;2022-12-07T18:19:03;37.23;;;19.77;;
6832;SDS011;3454;42.654;23.378;2022-12-07T18:21:31;42.33;;;20.90;;
6832;SDS011;3454;42.654;23.378;2022-12-07T18:23:58;49.07;;;22.73;;
6832;SDS011;3454;42.654;23.378;2022-12-07T18:26:30;42.73;;;21.20;;
6832;SDS011;3454;42.654;23.378;2022-12-07T18:28:58;42.73;;;20.07;;
6832;SDS011;3454;42.654;23.378;2022-12-07T18:31:24;44.83;;;20.37;;
6832;SDS011;3454;42.654;23.378;2022-12-07T18:33:50;41.43;;;20.03;;
6832;SDS011;3454;42.654;23.378;2022-12-07T18:36:19;44.10;;;19.07;;
6832;SDS011;3454;42.654;23.378;2022-12-07T18:38:45;43.83;;;20.03;;
6832;SDS011;3454;42.654;23.378;2022-12-07T18:41:11;42.70;;;21.13;;
6832;SDS011;3454;42.654;23.378;2022-12-07T18:43:38;45.87;;;20.47;;
6832;SDS011;3454;42.654;23.378;2022-12-07T18:46:17;50.33;;;21.37;;
6832;SDS011;3454;42.654;23.378;2022-12-07T18:48:44;42.97;;;21.37;;
6832;SDS011;3454;42.654;23.378;2022-12-07T18:51:11;46.97;;;22.63;;
6832;SDS011;3454;42.654;23.378;2022-12-07T18:53:47;49.53;;;22.90;;
6832;SDS011;3454;42.654;23.378;2022-12-07T18:56:21;45.67;;;23.37;;
6832;SDS011;3454;42.654;23.378;2022-12-07T18:58:51;53.57;;;23.57;;
6832;SDS011;3454;42.654;23.378;2022-12-07T19:01:40;43.93;;;22.97;;
6832;SDS011;3454;42.654;23.378;2022-12-07T19:04:07;42.50;;;21.27;;
6832;SDS011;3454;42.654;23.378;2022-12-07T19:06:33;59.33;;;24.60;;
6832;SDS011;3454;42.654;23.378;2022-12-07T19:08:59;46.67;;;22.33;;
6832;SDS011;3454;42.654;23.378;2022-12-07T19:11:26;42.10;;;22.30;;
6832;SDS011;3454;42.654;23.378;2022-12-07T19:14:13;41.10;;;20.73;;
6832;SDS011;3454;42.654;23.378;2022-12-07T19:16:44;50.87;;;22.10;;
6832;SDS011;3454;42.654;23.378;2022-12-07T19:19:13;40.97;;;21.10;;
6832;SDS011;3454;42.654;23.378;2022-12-07T19:21:39;42.00;;;20.90;;
6832;SDS011;3454;42.654;23.378;2022-12-07T19:24:05;54.13;;;21.83;;
6832;SDS011;3454;42.654;23.378;2022-12-07T19:26:31;46.27;;;19.60;;
6832;SDS011;3454;42.654;23.378;2022-12-07T19:28:57;39.67;;;20.67;;
6832;SDS011;3454;42.654;23.378;2022-12-07T19:31:23;42.27;;;20.27;;
6832;SDS011;3454;42.654;23.378;2022-12-07T19:33:48;38.77;;;19.37;;
6832;SDS011;3454;42.654;23.378;2022-12-07T19:36:13;43.00;;;21.57;;
6832;SDS011;3454;42.654;23.378;2022-12-07T19:38:39;37.53;;;19.00;;
6832;SDS011;3454;42.654;23.378;2022-12-07T19:41:05;39.90;;;20.70;;
6832;SDS011;3454;42.654;23.378;2022-12-07T19:43:57;44.80;;;20.00;;
6832;SDS011;3454;42.654;23.378;2022-12-07T19:46:28;44.57;;;20.30;;
6832;SDS011;3454;42.654;23.378;2022-12-07T19:48:54;40.07;;;19.50;;
6832;SDS011;3454;42.654;23.378;2022-12-07T19:51:20;37.77;;;19.37;;
6832;SDS011;3454;42.654;23.378;2022-12-07T19:53:45;41.13;;;18.83;;
6832;SDS011;3454;42.654;23.378;2022-12-07T19:56:14;40.97;;;19.37;;
6832;SDS011;3454;42.654;23.378;2022-12-07T19:58:41;38.63;;;18.43;;
6832;SDS011;3454;42.654;23.378;2022-12-07T20:01:06;42.23;;;19.47;;
6832;SDS011;3454;42.654;23.378;2022-12-07T20:03:32;44.27;;;19.30;;
6832;SDS011;3454;42.654;23.378;2022-12-07T20:05:58;35.20;;;17.43;;
6832;SDS011;3454;42.654;23.378;2022-12-07T20:08:23;35.33;;;18.70;;
6832;SDS011;3454;42.654;23.378;2022-12-07T20:10:50;38.60;;;19.17;;
6832;SDS011;3454;42.654;23.378;2022-12-07T20:13:16;35.10;;;19.17;;
6832;SDS011;3454;42.654;23.378;2022-12-07T20:16:01;37.13;;;18.23;;
6832;SDS011;3454;42.654;23.378;2022-12-07T20:18:28;35.20;;;19.53;;
6832;SDS011;3454;42.654;23.378;2022-12-07T20:20:54;32.70;;;18.53;;
6832;SDS011;3454;42.654;23.378;2022-12-07T20:23:21;40.23;;;19.50;;
6832;SDS011;3454;42.654;23.378;2022-12-07T20:25:51;46.60;;;21.10;;
6832;SDS011;3454;42.654;23.378;2022-12-07T20:28:16;43.73;;;21.47;;
6832;SDS011;3454;42.654;23.378;2022-12-07T20:30:45;38.63;;;20.20;;
6832;SDS011;3454;42.654;23.378;2022-12-07T20:33:11;40.60;;;21.20;;
6832;SDS011;3454;42.654;23.378;2022-12-07T20:35:37;40.93;;;19.87;;
6832;SDS011;3454;42.654;23.378;2022-12-07T20:38:02;41.73;;;20.10;;
6832;SDS011;3454;42.654;23.378;2022-12-07T20:40:29;39.57;;;20.37;;
6832;SDS011;3454;42.654;23.378;2022-12-07T20:42:54;44.13;;;21.07;;
6832;SDS011;3454;42.654;23.378;2022-12-07T20:45:20;40.17;;;20.87;;
6832;SDS011;3454;42.654;23.378;2022-12-07T20:47:45;37.80;;;20.43;;
6832;SDS011;3454;42.654;23.378;2022-12-07T20:50:11;44.77;;;22.00;;
6832;SDS011;3454;42.654;23.378;2022-12-07T20:52:36;41.30;;;21.30;;
6832;SDS011;3454;42.654;23.378;2022-12-07T20:55:02;43.17;;;21.40;;
6832;SDS011;3454;42.654;23.378;2022-12-07T20:57:27;42.90;;;20.40;;
6832;SDS011;3454;42.654;23.378;2022-12-07T20:59:53;49.47;;;21.17;;
6832;SDS011;3454;42.654;23.378;2022-12-07T21:02:18;43.63;;;21.13;;
6832;SDS011;3454;42.654;23.378;2022-12-07T21:04:44;42.47;;;20.53;;
6832;SDS011;3454;42.654;23.378;2022-12-07T21:07:17;43.07;;;20.37;;
6832;SDS011;3454;42.654;23.378;2022-12-07T21:09:44;40.00;;;20.40;;
6832;SDS011;3454;42.654;23.378;2022-12-07T21:12:10;38.00;;;19.57;;
6832;SDS011;3454;42.654;23.378;2022-12-07T21:14:41;40.57;;;21.03;;
